sensor_id;sensor_type;location;lat;lon;timestamp;pressure;altitude;pressure_sealevel;temperature;humidity
23118;BME280;11728;50.624;6.014;2023-05-24T00:04:14;99009.69;;;10.71;67.16
23118;BME280;11728;50.624;6.014;2023-05-24T00:09:35;99015.94;;;10.64;67.28
23118;BME280;11728;50.624;6.014;2023-05-24T00:14:56;99023.94;;;10.56;67.36
23118;BME280;11728;50.624;6.014;2023-05-24T00:20:17;99022.25;;;10.49;67.39
23118;BME280;11728;50.624;6.014;2023-05-24T00:25:39;99019.69;;;10.43;67.58
23118;BME280;11728;50.624;6.014;2023-05-24T00:31:00;99018.00;;;10.36;67.80
23118;BME280;11728;50.624;6.014;2023-05-24T00:36:21;99021.59;;;10.26;68.25
23118;BME280;11728;50.624;6.014;2023-05-24T00:41:42;99012.03;;;10.18;68.72
23118;BME280;11728;50.624;6.014;2023-05-24T00:47:03;99015.59;;;10.11;68.85
23118;BME280;11728;50.624;6.014;2023-05-24T00:52:23;99011.31;;;9.99;68.87
23118;BME280;11728;50.624;6.014;2023-05-24T00:57:44;99004.34;;;9.91;69.23
23118;BME280;11728;50.624;6.014;2023-05-24T01:03:05;98998.28;;;9.77;69.45
23118;BME280;11728;50.624;6.014;2023-05-24T01:19:48;99002.94;;;9.42;71.16
23118;BME280;11728;50.624;6.014;2023-05-24T01:25:17;99011.84;;;9.29;71.69
23118;BME280;11728;50.624;6.014;2023-05-24T01:30:40;99001.34;;;9.20;72.04
23118;BME280;11728;50.624;6.014;2023-05-24T01:36:00;99007.53;;;9.11;72.14
23118;BME280;11728;50.624;6.014;2023-05-24T01:41:38;99009.34;;;9.01;72.71
23118;BME280;11728;50.624;6.014;2023-05-24T01:47:13;99005.91;;;8.92;73.03
23118;BME280;11728;50.624;6.014;2023-05-24T01:52:38;99001.53;;;8.82;73.28
23118;BME280;11728;50.624;6.014;2023-05-24T01:58:05;99001.59;;;8.74;73.38
23118;BME280;11728;50.624;6.014;2023-05-24T02:03:27;98996.38;;;8.64;73.52
23118;BME280;11728;50.624;6.014;2023-05-24T02:08:48;98995.53;;;8.53;73.75
23118;BME280;11728;50.624;6.014;2023-05-24T02:14:09;99004.31;;;8.49;74.30
23118;BME280;11728;50.624;6.014;2023-05-24T02:19:30;99001.72;;;8.43;74.49
23118;BME280;11728;50.624;6.014;2023-05-24T02:24:51;99006.13;;;8.35;74.48
23118;BME280;11728;50.624;6.014;2023-05-24T02:30:13;99000.88;;;8.29;74.42
23118;BME280;11728;50.624;6.014;2023-05-24T02:35:33;98984.22;;;8.18;74.90
23118;BME280;11728;50.624;6.014;2023-05-24T02:40:54;98986.84;;;8.09;75.18
23118;BME280;11728;50.624;6.014;2023-05-24T02:46:15;98983.38;;;7.98;75.78
23118;BME280;11728;50.624;6.014;2023-05-24T02:51:36;98974.63;;;7.90;76.33
23118;BME280;11728;50.624;6.014;2023-05-24T02:56:57;98972.88;;;7.83;76.25
23118;BME280;11728;50.624;6.014;2023-05-24T03:02:17;98976.38;;;7.76;76.31
23118;BME280;11728;50.624;6.014;2023-05-24T03:07:38;98982.53;;;7.66;76.36
23118;BME280;11728;50.624;6.014;2023-05-24T03:13:00;98986.00;;;7.57;76.79
23118;BME280;11728;50.624;6.014;2023-05-24T03:18:21;98983.41;;;7.45;77.41
23118;BME280;11728;50.624;6.014;2023-05-24T03:23:42;98976.41;;;7.36;77.47
23118;BME280;11728;50.624;6.014;2023-05-24T03:29:02;98976.38;;;7.29;77.58
23118;BME280;11728;50.624;6.014;2023-05-24T03:34:23;98967.59;;;7.27;77.47
23118;BME280;11728;50.624;6.014;2023-05-24T03:39:44;98969.34;;;7.22;77.56
23118;BME280;11728;50.624;6.014;2023-05-24T03:45:05;98986.84;;;7.20;77.58
23118;BME280;11728;50.624;6.014;2023-05-24T03:50:26;98992.13;;;7.18;77.14
23118;BME280;11728;50.624;6.014;2023-05-24T03:55:47;98982.50;;;7.14;77.34
23118;BME280;11728;50.624;6.014;2023-05-24T04:01:07;98989.50;;;7.11;77.47
23118;BME280;11728;50.624;6.014;2023-05-24T04:06:29;98990.38;;;7.10;77.53
23118;BME280;11728;50.624;6.014;2023-05-24T04:11:50;98985.97;;;7.15;77.36
23118;BME280;11728;50.624;6.014;2023-05-24T04:17:10;98986.00;;;7.18;76.94
23118;BME280;11728;50.624;6.014;2023-05-24T04:22:31;98989.50;;;7.29;76.63
23118;BME280;11728;50.624;6.014;2023-05-24T04:27:52;98986.88;;;7.35;76.26
23118;BME280;11728;50.624;6.014;2023-05-24T04:33:13;99007.91;;;7.44;76.36
23118;BME280;11728;50.624;6.014;2023-05-24T04:38:34;99011.41;;;7.53;76.44
23118;BME280;11728;50.624;6.014;2023-05-24T04:43:55;99015.81;;;7.63;76.33
23118;BME280;11728;50.624;6.014;2023-05-24T04:49:16;99025.44;;;7.74;76.17
23118;BME280;11728;50.624;6.014;2023-05-24T04:54:37;99023.69;;;7.87;75.35
23118;BME280;11728;50.624;6.014;2023-05-24T04:59:57;99017.56;;;8.03;74.58
23118;BME280;11728;50.624;6.014;2023-05-24T05:05:18;99028.94;;;8.18;74.28
23118;BME280;11728;50.624;6.014;2023-05-24T05:10:39;99035.06;;;8.37;74.30
23118;BME280;11728;50.624;6.014;2023-05-24T05:16:01;99028.84;;;8.60;73.46
23118;BME280;11728;50.624;6.014;2023-05-24T05:21:22;99031.34;;;8.93;72.58
23118;BME280;11728;50.624;6.014;2023-05-24T05:26:42;99034.59;;;9.41;74.86
23118;BME280;11728;50.624;6.014;2023-05-24T05:32:03;99029.97;;;9.74;72.42
23118;BME280;11728;50.624;6.014;2023-05-24T05:37:24;99025.47;;;9.85;70.53
23118;BME280;11728;50.624;6.014;2023-05-24T05:42:45;99027.97;;;10.06;69.86
23118;BME280;11728;50.624;6.014;2023-05-24T05:48:06;99026.78;;;10.37;68.75
23118;BME280;11728;50.624;6.014;2023-05-24T05:53:27;99024.56;;;10.77;68.31
23118;BME280;11728;50.624;6.014;2023-05-24T05:58:48;99019.69;;;11.15;67.62
23118;BME280;11728;50.624;6.014;2023-05-24T06:04:09;99028.81;;;11.55;66.70
23118;BME280;11728;50.624;6.014;2023-05-24T06:09:30;99022.88;;;11.95;65.79
23118;BME280;11728;50.624;6.014;2023-05-24T06:14:50;99031.94;;;12.33;64.45
23118;BME280;11728;50.624;6.014;2023-05-24T06:20:11;99012.72;;;12.68;63.63
23118;BME280;11728;50.624;6.014;2023-05-24T06:25:35;99027.03;;;13.03;63.01
23118;BME280;11728;50.624;6.014;2023-05-24T06:30:58;99024.25;;;13.50;62.62
23118;BME280;11728;50.624;6.014;2023-05-24T06:36:18;99032.72;;;13.67;61.99
23118;BME280;11728;50.624;6.014;2023-05-24T06:41:39;99036.66;;;13.85;61.22
23118;BME280;11728;50.624;6.014;2023-05-24T06:47:02;99040.69;;;14.01;60.46
23118;BME280;11728;50.624;6.014;2023-05-24T06:52:23;99037.34;;;13.93;61.65
23118;BME280;11728;50.624;6.014;2023-05-24T06:57:44;99043.47;;;14.33;60.99
23118;BME280;11728;50.624;6.014;2023-05-24T07:03:04;99043.41;;;15.00;58.38
23118;BME280;11728;50.624;6.014;2023-05-24T07:08:25;99038.25;;;15.82;56.60
23118;BME280;11728;50.624;6.014;2023-05-24T07:13:46;99027.16;;;16.48;54.74
23118;BME280;11728;50.624;6.014;2023-05-24T07:19:07;99024.31;;;17.01;51.15
23118;BME280;11728;50.624;6.014;2023-05-24T07:24:28;99026.94;;;17.27;48.09
23118;BME280;11728;50.624;6.014;2023-05-24T07:29:48;99031.56;;;17.68;48.18
23118;BME280;11728;50.624;6.014;2023-05-24T07:35:10;99036.16;;;18.09;46.49
23118;BME280;11728;50.624;6.014;2023-05-24T07:40:34;99029.63;;;18.37;46.12
23118;BME280;11728;50.624;6.014;2023-05-24T07:45:55;99025.78;;;19.04;44.85
23118;BME280;11728;50.624;6.014;2023-05-24T07:51:16;99040.84;;;19.83;44.44
23118;BME280;11728;50.624;6.014;2023-05-24T07:56:37;99034.53;;;20.20;42.58
23118;BME280;11728;50.624;6.014;2023-05-24T08:01:58;99041.00;;;20.69;41.36
23118;BME280;11728;50.624;6.014;2023-05-24T08:07:23;99029.88;;;21.10;40.59
23118;BME280;11728;50.624;6.014;2023-05-24T08:12:44;99033.91;;;22.14;39.71
23118;BME280;11728;50.624;6.014;2023-05-24T08:18:05;99036.44;;;22.32;38.70
23118;BME280;11728;50.624;6.014;2023-05-24T08:23:25;99031.59;;;22.97;37.64
23118;BME280;11728;50.624;6.014;2023-05-24T08:28:49;99040.09;;;23.62;35.94
23118;BME280;11728;50.624;6.014;2023-05-24T08:34:10;99039.50;;;23.29;35.54
23118;BME280;11728;50.624;6.014;2023-05-24T08:39:30;99048.66;;;22.07;36.75
23118;BME280;11728;50.624;6.014;2023-05-24T08:44:52;99050.50;;;22.52;36.09
23118;BME280;11728;50.624;6.014;2023-05-24T08:50:16;99048.31;;;21.97;37.06
23118;BME280;11728;50.624;6.014;2023-05-24T08:55:38;99051.44;;;21.58;37.44
23118;BME280;11728;50.624;6.014;2023-05-24T09:00:59;99038.72;;;22.98;36.73
23118;BME280;11728;50.624;6.014;2023-05-24T09:06:21;99029.66;;;24.12;34.48
23118;BME280;11728;50.624;6.014;2023-05-24T09:11:46;99022.75;;;25.26;33.11
23118;BME280;11728;50.624;6.014;2023-05-24T09:17:08;99025.47;;;25.75;32.44
23118;BME280;11728;50.624;6.014;2023-05-24T09:22:29;99024.13;;;25.56;31.47
23118;BME280;11728;50.624;6.014;2023-05-24T09:27:52;99023.28;;;25.68;31.11
23118;BME280;11728;50.624;6.014;2023-05-24T09:33:13;99025.00;;;26.30;30.06
23118;BME280;11728;50.624;6.014;2023-05-24T09:38:33;99016.22;;;26.85;30.17
23118;BME280;11728;50.624;6.014;2023-05-24T09:43:55;99015.03;;;26.43;30.51
23118;BME280;11728;50.624;6.014;2023-05-24T09:49:16;99013.88;;;26.57;30.34
23118;BME280;11728;50.624;6.014;2023-05-24T09:54:37;99021.72;;;26.49;30.22
23118;BME280;11728;50.624;6.014;2023-05-24T10:00:04;99006.16;;;26.98;29.65
23118;BME280;11728;50.624;6.014;2023-05-24T10:05:36;99002.53;;;27.66;28.89
23118;BME280;11728;50.624;6.014;2023-05-24T10:10:57;99005.28;;;28.52;28.95
23118;BME280;11728;50.624;6.014;2023-05-24T10:16:18;98997.00;;;28.96;27.07
23118;BME280;11728;50.624;6.014;2023-05-24T10:21:40;98997.59;;;28.57;27.78
23118;BME280;11728;50.624;6.014;2023-05-24T10:27:04;98997.53;;;28.90;27.62
23118;BME280;11728;50.624;6.014;2023-05-24T10:32:28;98994.41;;;28.63;26.76
23118;BME280;11728;50.624;6.014;2023-05-24T10:37:52;98990.19;;;27.62;28.13
23118;BME280;11728;50.624;6.014;2023-05-24T10:43:15;98998.75;;;26.07;31.71
23118;BME280;11728;50.624;6.014;2023-05-24T10:48:37;98985.03;;;27.14;29.46
23118;BME280;11728;50.624;6.014;2023-05-24T10:54:13;98987.84;;;27.91;30.06
23118;BME280;11728;50.624;6.014;2023-05-24T10:59:36;98985.34;;;26.75;30.47
23118;BME280;11728;50.624;6.014;2023-05-24T11:05:04;98996.72;;;27.15;31.16
23118;BME280;11728;50.624;6.014;2023-05-24T11:10:31;98997.03;;;26.99;30.42
23118;BME280;11728;50.624;6.014;2023-05-24T11:15:52;99003.94;;;26.10;30.96
23118;BME280;11728;50.624;6.014;2023-05-24T11:21:13;98990.00;;;27.31;30.42
23118;BME280;11728;50.624;6.014;2023-05-24T11:26:34;98991.09;;;27.18;28.47
23118;BME280;11728;50.624;6.014;2023-05-24T11:31:57;98981.88;;;26.62;29.41
23118;BME280;11728;50.624;6.014;2023-05-24T11:37:23;98980.13;;;26.61;29.57
23118;BME280;11728;50.624;6.014;2023-05-24T11:42:45;98970.72;;;25.95;29.84
23118;BME280;11728;50.624;6.014;2023-05-24T11:48:06;98974.13;;;24.61;31.51
23118;BME280;11728;50.624;6.014;2023-05-24T11:53:27;98971.78;;;23.34;33.38
23118;BME280;11728;50.624;6.014;2023-05-24T11:58:48;98968.38;;;22.59;34.46
23118;BME280;11728;50.624;6.014;2023-05-24T12:04:10;98970.97;;;22.61;35.27
23118;BME280;11728;50.624;6.014;2023-05-24T12:09:31;98963.41;;;24.47;33.01
23118;BME280;11728;50.624;6.014;2023-05-24T12:14:54;98965.59;;;25.43;31.52
23118;BME280;11728;50.624;6.014;2023-05-24T12:20:16;98964.09;;;24.36;31.89
23118;BME280;11728;50.624;6.014;2023-05-24T12:25:38;98976.00;;;23.10;34.15
23118;BME280;11728;50.624;6.014;2023-05-24T12:30:59;98972.06;;;22.43;35.41
23118;BME280;11728;50.624;6.014;2023-05-24T12:36:19;98967.28;;;22.48;35.36
23118;BME280;11728;50.624;6.014;2023-05-24T12:41:40;98961.22;;;22.74;35.34
23118;BME280;11728;50.624;6.014;2023-05-24T12:47:02;98974.97;;;22.83;35.75
23118;BME280;11728;50.624;6.014;2023-05-24T12:52:24;98962.72;;;22.64;35.78
23118;BME280;11728;50.624;6.014;2023-05-24T12:57:45;98968.19;;;22.33;36.53
23118;BME280;11728;50.624;6.014;2023-05-24T13:03:12;98965.94;;;22.55;36.35
23118;BME280;11728;50.624;6.014;2023-05-24T13:08:33;98972.53;;;21.89;36.54
23118;BME280;11728;50.624;6.014;2023-05-24T13:13:54;98963.94;;;21.67;37.59
23118;BME280;11728;50.624;6.014;2023-05-24T13:19:14;98968.03;;;22.05;37.17
23118;BME280;11728;50.624;6.014;2023-05-24T13:24:36;98962.72;;;22.64;36.43
23118;BME280;11728;50.624;6.014;2023-05-24T13:29:57;98964.47;;;22.79;36.57
23118;BME280;11728;50.624;6.014;2023-05-24T13:35:18;98959.91;;;22.21;36.97
23118;BME280;11728;50.624;6.014;2023-05-24T13:40:39;98954.22;;;22.11;37.64
23118;BME280;11728;50.624;6.014;2023-05-24T13:46:00;98943.81;;;22.50;37.24
23118;BME280;11728;50.624;6.014;2023-05-24T13:51:20;98949.28;;;22.78;36.54
23118;BME280;11728;50.624;6.014;2023-05-24T13:56:42;98939.41;;;22.49;36.99
23118;BME280;11728;50.624;6.014;2023-05-24T14:02:04;98950.47;;;22.29;37.07
23118;BME280;11728;50.624;6.014;2023-05-24T14:07:25;98942.34;;;22.74;37.10
23118;BME280;11728;50.624;6.014;2023-05-24T14:12:46;98924.66;;;24.07;35.42
23118;BME280;11728;50.624;6.014;2023-05-24T14:18:07;98930.22;;;24.45;34.01
23118;BME280;11728;50.624;6.014;2023-05-24T14:23:28;98927.13;;;23.98;34.28
23118;BME280;11728;50.624;6.014;2023-05-24T14:28:52;98943.78;;;23.36;35.25
23118;BME280;11728;50.624;6.014;2023-05-24T14:34:13;98931.78;;;22.85;36.22
23118;BME280;11728;50.624;6.014;2023-05-24T14:39:33;98936.66;;;22.35;36.88
23118;BME280;11728;50.624;6.014;2023-05-24T14:44:54;98943.22;;;22.00;37.68
23118;BME280;11728;50.624;6.014;2023-05-24T14:50:15;98939.56;;;21.86;37.46
23118;BME280;11728;50.624;6.014;2023-05-24T14:55:36;98926.56;;;21.78;37.56
23118;BME280;11728;50.624;6.014;2023-05-24T15:00:57;98927.94;;;21.70;38.00
23118;BME280;11728;50.624;6.014;2023-05-24T15:06:18;98936.63;;;21.90;38.00
23118;BME280;11728;50.624;6.014;2023-05-24T15:11:39;98937.47;;;21.91;37.87
23118;BME280;11728;50.624;6.014;2023-05-24T15:17:00;98930.34;;;21.44;38.41
23118;BME280;11728;50.624;6.014;2023-05-24T15:22:21;98941.59;;;21.02;39.34
23118;BME280;11728;50.624;6.014;2023-05-24T15:27:41;98943.94;;;20.93;40.04
23118;BME280;11728;50.624;6.014;2023-05-24T15:33:03;98937.88;;;21.37;39.53
23118;BME280;11728;50.624;6.014;2023-05-24T15:38:24;98935.25;;;21.83;42.11
23118;BME280;11728;50.624;6.014;2023-05-24T15:43:45;98936.00;;;22.01;43.29
23118;BME280;11728;50.624;6.014;2023-05-24T15:49:06;98923.84;;;21.94;42.08
23118;BME280;11728;50.624;6.014;2023-05-24T15:54:26;98924.47;;;21.83;42.26
23118;BME280;11728;50.624;6.014;2023-05-24T15:59:47;98919.41;;;22.08;39.96
23118;BME280;11728;50.624;6.014;2023-05-24T16:05:08;98924.19;;;22.03;39.53
23118;BME280;11728;50.624;6.014;2023-05-24T16:10:30;98918.84;;;21.72;39.40
23118;BME280;11728;50.624;6.014;2023-05-24T16:15:51;98917.00;;;21.27;40.09
23118;BME280;11728;50.624;6.014;2023-05-24T16:21:11;98911.69;;;20.93;41.11
23118;BME280;11728;50.624;6.014;2023-05-24T16:26:32;98911.41;;;20.65;41.23
23118;BME280;11728;50.624;6.014;2023-05-24T16:31:53;98907.03;;;20.30;41.97
23118;BME280;11728;50.624;6.014;2023-05-24T16:37:14;98902.09;;;20.05;41.97
23118;BME280;11728;50.624;6.014;2023-05-24T16:42:35;98901.41;;;19.83;42.74
23118;BME280;11728;50.624;6.014;2023-05-24T16:47:55;98901.94;;;19.72;42.81
23118;BME280;11728;50.624;6.014;2023-05-24T16:53:16;98903.78;;;19.72;43.10
23118;BME280;11728;50.624;6.014;2023-05-24T16:58:37;98905.97;;;19.64;43.21
23118;BME280;11728;50.624;6.014;2023-05-24T17:03:58;98913.00;;;19.48;43.76
23118;BME280;11728;50.624;6.014;2023-05-24T17:09:18;98888.22;;;19.25;43.87
23118;BME280;11728;50.624;6.014;2023-05-24T17:14:39;98894.03;;;18.96;44.10
23118;BME280;11728;50.624;6.014;2023-05-24T17:20:00;98904.16;;;18.71;44.84
23118;BME280;11728;50.624;6.014;2023-05-24T17:25:21;98908.06;;;18.64;45.08
23118;BME280;11728;50.624;6.014;2023-05-24T17:30:42;98916.25;;;18.79;44.85
23118;BME280;11728;50.624;6.014;2023-05-24T17:36:03;98911.25;;;18.72;44.48
23118;BME280;11728;50.624;6.014;2023-05-24T17:41:25;98910.66;;;18.65;44.31
23118;BME280;11728;50.624;6.014;2023-05-24T17:46:46;98916.81;;;18.48;44.07
23118;BME280;11728;50.624;6.014;2023-05-24T17:52:07;98923.91;;;18.29;44.27
23118;BME280;11728;50.624;6.014;2023-05-24T17:57:28;98923.44;;;18.18;45.16
23118;BME280;11728;50.624;6.014;2023-05-24T18:02:49;98920.00;;;18.16;45.63
23118;BME280;11728;50.624;6.014;2023-05-24T18:08:10;98930.44;;;18.00;45.46
23118;BME280;11728;50.624;6.014;2023-05-24T18:13:30;98939.06;;;17.87;46.06
23118;BME280;11728;50.624;6.014;2023-05-24T18:18:51;98923.47;;;17.76;46.43
23118;BME280;11728;50.624;6.014;2023-05-24T18:24:12;98928.59;;;17.81;47.20
23118;BME280;11728;50.624;6.014;2023-05-24T18:29:33;98931.84;;;17.68;47.64
23118;BME280;11728;50.624;6.014;2023-05-24T18:34:55;98927.50;;;17.65;47.85
23118;BME280;11728;50.624;6.014;2023-05-24T18:40:16;98922.53;;;17.56;47.78
23118;BME280;11728;50.624;6.014;2023-05-24T18:45:37;98926.50;;;17.46;47.98
23118;BME280;11728;50.624;6.014;2023-05-24T18:50:58;98926.84;;;17.37;48.09
23118;BME280;11728;50.624;6.014;2023-05-24T18:56:19;98930.91;;;17.24;48.48
23118;BME280;11728;50.624;6.014;2023-05-24T19:01:40;98932.25;;;17.13;48.34
23118;BME280;11728;50.624;6.014;2023-05-24T19:07:01;98935.22;;;17.05;48.79
23118;BME280;11728;50.624;6.014;2023-05-24T19:12:21;98933.91;;;16.92;49.23
23118;BME280;11728;50.624;6.014;2023-05-24T19:17:42;98936.38;;;16.76;49.45
23118;BME280;11728;50.624;6.014;2023-05-24T19:23:03;98942.53;;;16.53;50.75
23118;BME280;11728;50.624;6.014;2023-05-24T19:28:24;98949.38;;;16.36;51.11
23118;BME280;11728;50.624;6.014;2023-05-24T19:33:45;98954.38;;;16.19;51.47
23118;BME280;11728;50.624;6.014;2023-05-24T19:39:08;98959.44;;;16.02;51.86
23118;BME280;11728;50.624;6.014;2023-05-24T19:44:29;98965.31;;;15.86;52.45
23118;BME280;11728;50.624;6.014;2023-05-24T19:49:50;98963.91;;;15.74;52.66
23118;BME280;11728;50.624;6.014;2023-05-24T19:55:11;98975.59;;;15.70;52.87
23118;BME280;11728;50.624;6.014;2023-05-24T20:00:32;98982.66;;;15.71;53.16
23118;BME280;11728;50.624;6.014;2023-05-24T20:05:53;98985.38;;;15.70;53.21
23118;BME280;11728;50.624;6.014;2023-05-24T20:11:13;98994.28;;;15.69;53.28
23118;BME280;11728;50.624;6.014;2023-05-24T20:16:34;98993.38;;;15.70;53.24
23118;BME280;11728;50.624;6.014;2023-05-24T20:21:55;98997.09;;;15.64;53.28
23118;BME280;11728;50.624;6.014;2023-05-24T20:27:16;98995.06;;;15.45;53.27
23118;BME280;11728;50.624;6.014;2023-05-24T20:32:37;99006.22;;;15.29;53.82
23118;BME280;11728;50.624;6.014;2023-05-24T20:37:58;99008.47;;;15.12;54.39
23118;BME280;11728;50.624;6.014;2023-05-24T20:43:19;99020.19;;;15.05;54.61
23118;BME280;11728;50.624;6.014;2023-05-24T20:48:40;99017.53;;;15.05;54.70
23118;BME280;11728;50.624;6.014;2023-05-24T20:54:03;99020.38;;;14.99;55.10
23118;BME280;11728;50.624;6.014;2023-05-24T20:59:24;99024.19;;;14.89;55.04
23118;BME280;11728;50.624;6.014;2023-05-24T21:04:45;99028.19;;;14.73;55.77
23118;BME280;11728;50.624;6.014;2023-05-24T21:10:06;99032.44;;;14.48;56.59
23118;BME280;11728;50.624;6.014;2023-05-24T21:15:27;99024.38;;;14.18;57.65
23118;BME280;11728;50.624;6.014;2023-05-24T21:20:48;99024.06;;;13.93;58.81
23118;BME280;11728;50.624;6.014;2023-05-24T21:26:08;99032.56;;;13.73;59.61
23118;BME280;11728;50.624;6.014;2023-05-24T21:31:29;99032.16;;;13.53;60.48
23118;BME280;11728;50.624;6.014;2023-05-24T21:36:51;99033.59;;;13.28;61.41
23118;BME280;11728;50.624;6.014;2023-05-24T21:42:12;99039.25;;;13.10;62.15
23118;BME280;11728;50.624;6.014;2023-05-24T21:47:32;99037.78;;;12.97;62.61
23118;BME280;11728;50.624;6.014;2023-05-24T21:52:55;99043.41;;;12.79;63.53
23118;BME280;11728;50.624;6.014;2023-05-24T21:58:15;99042.78;;;12.67;64.34
23118;BME280;11728;50.624;6.014;2023-05-24T22:03:36;99043.81;;;12.58;64.67
23118;BME280;11728;50.624;6.014;2023-05-24T22:08:57;99049.94;;;12.62;65.08
23118;BME280;11728;50.624;6.014;2023-05-24T22:14:21;99055.31;;;12.59;65.48
23118;BME280;11728;50.624;6.014;2023-05-24T22:19:42;99044.97;;;12.44;65.67
23118;BME280;11728;50.624;6.014;2023-05-24T22:25:03;99046.97;;;12.31;66.06
23118;BME280;11728;50.624;6.014;2023-05-24T22:30:24;99046.25;;;12.21;66.75
23118;BME280;11728;50.624;6.014;2023-05-24T22:35:45;99052.63;;;12.09;67.16
23118;BME280;11728;50.624;6.014;2023-05-24T22:41:06;99059.06;;;11.95;67.87
23118;BME280;11728;50.624;6.014;2023-05-24T22:46:27;99068.06;;;11.83;68.39
23118;BME280;11728;50.624;6.014;2023-05-24T22:51:48;99062.97;;;11.70;68.92
23118;BME280;11728;50.624;6.014;2023-05-24T22:57:10;99064.03;;;11.58;69.62
23118;BME280;11728;50.624;6.014;2023-05-24T23:02:31;99061.53;;;11.47;70.15
23118;BME280;11728;50.624;6.014;2023-05-24T23:07:52;99062.53;;;11.40;70.67
23118;BME280;11728;50.624;6.014;2023-05-24T23:13:15;99067.06;;;11.30;70.82
23118;BME280;11728;50.624;6.014;2023-05-24T23:18:37;99066.19;;;11.28;70.85
23118;BME280;11728;50.624;6.014;2023-05-24T23:24:02;99067.06;;;11.30;70.62
23118;BME280;11728;50.624;6.014;2023-05-24T23:29:24;99072.19;;;11.39;70.54
23118;BME280;11728;50.624;6.014;2023-05-24T23:34:45;99065.03;;;11.48;70.22
23118;BME280;11728;50.624;6.014;2023-05-24T23:40:06;99066.66;;;11.61;69.86
23118;BME280;11728;50.624;6.014;2023-05-24T23:45:27;99070.91;;;11.70;69.47
23118;BME280;11728;50.624;6.014;2023-05-24T23:50:47;99073.50;;;11.76;69.01
23118;BME280;11728;50.624;6.014;2023-05-24T23:56:08;99071.78;;;11.72;68.86
